sensor_id;sensor_type;location;lat;lon;timestamp;P1;durP1;ratioP1;P2;durP2;ratioP2
48881;SDS011;57063;51.406;-2.402;2023-03-05T00:05:37;18.75;;;11.52;;
48881;SDS011;57063;51.406;-2.402;2023-03-05T09:54:16;6.63;;;2.90;;
48881;SDS011;57063;51.406;-2.402;2023-03-05T09:56:55;6.53;;;3.60;;
48881;SDS011;57063;51.406;-2.402;2023-03-05T10:15:32;5.32;;;3.28;;
48881;SDS011;57063;51.406;-2.402;2023-03-05T10:26:17;6.22;;;3.45;;
48881;SDS011;57063;51.406;-2.402;2023-03-05T10:29:03;7.60;;;3.67;;
48881;SDS011;57063;51.406;-2.402;2023-03-05T10:59:08;4.60;;;2.95;;
48881;SDS011;57063;51.406;-2.402;2023-03-05T11:51:12;5.10;;;2.78;;
48881;SDS011;57063;51.406;-2.402;2023-03-05T11:56:32;6.93;;;3.80;;
48881;SDS011;57063;51.406;-2.402;2023-03-05T12:12:29;5.57;;;3.05;;
48881;SDS011;57063;51.406;-2.402;2023-03-05T12:21:05;6.07;;;3.42;;
48881;SDS011;57063;51.406;-2.402;2023-03-05T12:27:04;7.38;;;3.17;;
48881;SDS011;57063;51.406;-2.402;2023-03-05T12:29:46;4.90;;;3.15;;
48881;SDS011;57063;51.406;-2.402;2023-03-05T12:45:44;8.60;;;2.78;;
48881;SDS011;57063;51.406;-2.402;2023-03-05T12:51:04;7.75;;;3.45;;
48881;SDS011;57063;51.406;-2.402;2023-03-05T13:08:17;11.25;;;3.97;;
48881;SDS011;57063;51.406;-2.402;2023-03-05T13:10:51;9.02;;;3.72;;
48881;SDS011;57063;51.406;-2.402;2023-03-05T13:13:19;5.85;;;3.22;;
48881;SDS011;57063;51.406;-2.402;2023-03-05T13:15:45;6.00;;;3.20;;
48881;SDS011;57063;51.406;-2.402;2023-03-05T13:18:31;7.15;;;3.70;;
48881;SDS011;57063;51.406;-2.402;2023-03-05T13:21:02;10.15;;;3.28;;
48881;SDS011;57063;51.406;-2.402;2023-03-05T13:23:28;8.93;;;3.25;;
48881;SDS011;57063;51.406;-2.402;2023-03-05T13:28:39;6.05;;;3.00;;
48881;SDS011;57063;51.406;-2.402;2023-03-05T13:31:14;5.32;;;2.88;;
48881;SDS011;57063;51.406;-2.402;2023-03-05T13:33:48;8.05;;;2.78;;
48881;SDS011;57063;51.406;-2.402;2023-03-05T13:36:20;7.40;;;3.13;;
48881;SDS011;57063;51.406;-2.402;2023-03-05T13:38:47;10.23;;;3.45;;
48881;SDS011;57063;51.406;-2.402;2023-03-05T13:43:42;6.22;;;3.33;;
48881;SDS011;57063;51.406;-2.402;2023-03-05T13:46:35;9.10;;;3.72;;
48881;SDS011;57063;51.406;-2.402;2023-03-05T13:49:16;10.55;;;3.72;;
48881;SDS011;57063;51.406;-2.402;2023-03-05T13:51:53;12.32;;;3.90;;
48881;SDS011;57063;51.406;-2.402;2023-03-05T13:54:23;14.25;;;4.40;;
48881;SDS011;57063;51.406;-2.402;2023-03-05T13:56:59;6.32;;;3.92;;
48881;SDS011;57063;51.406;-2.402;2023-03-05T13:59:30;12.18;;;4.65;;
48881;SDS011;57063;51.406;-2.402;2023-03-05T14:02:00;7.05;;;4.30;;
48881;SDS011;57063;51.406;-2.402;2023-03-05T14:04:46;17.70;;;4.75;;
48881;SDS011;57063;51.406;-2.402;2023-03-05T14:07:32;10.48;;;4.88;;
48881;SDS011;57063;51.406;-2.402;2023-03-05T14:10:43;10.20;;;5.13;;
48881;SDS011;57063;51.406;-2.402;2023-03-05T14:32:51;10.07;;;4.65;;
48881;SDS011;57063;51.406;-2.402;2023-03-05T14:35:21;10.48;;;4.82;;
48881;SDS011;57063;51.406;-2.402;2023-03-05T14:37:49;11.20;;;4.00;;
48881;SDS011;57063;51.406;-2.402;2023-03-05T14:40:28;13.02;;;4.88;;
48881;SDS011;57063;51.406;-2.402;2023-03-05T14:42:57;6.60;;;4.28;;
48881;SDS011;57063;51.406;-2.402;2023-03-05T14:45:28;10.88;;;4.38;;
48881;SDS011;57063;51.406;-2.402;2023-03-05T14:47:57;7.55;;;4.30;;
48881;SDS011;57063;51.406;-2.402;2023-03-05T14:50:28;10.30;;;4.95;;
48881;SDS011;57063;51.406;-2.402;2023-03-05T14:53:00;7.32;;;4.35;;
48881;SDS011;57063;51.406;-2.402;2023-03-05T14:58:13;9.88;;;4.80;;
48881;SDS011;57063;51.406;-2.402;2023-03-05T15:00:46;9.20;;;4.43;;
48881;SDS011;57063;51.406;-2.402;2023-03-05T15:03:14;6.28;;;4.43;;
48881;SDS011;57063;51.406;-2.402;2023-03-05T15:05:43;9.07;;;4.35;;
48881;SDS011;57063;51.406;-2.402;2023-03-05T15:08:38;11.80;;;5.40;;
48881;SDS011;57063;51.406;-2.402;2023-03-05T15:11:04;12.68;;;5.88;;
48881;SDS011;57063;51.406;-2.402;2023-03-05T15:16:06;14.00;;;4.93;;
48881;SDS011;57063;51.406;-2.402;2023-03-05T15:21:07;12.50;;;6.00;;
48881;SDS011;57063;51.406;-2.402;2023-03-05T15:23:33;9.00;;;5.10;;
48881;SDS011;57063;51.406;-2.402;2023-03-05T15:26:07;8.25;;;4.82;;
48881;SDS011;57063;51.406;-2.402;2023-03-05T15:29:13;8.63;;;4.70;;
48881;SDS011;57063;51.406;-2.402;2023-03-05T15:31:39;8.95;;;5.40;;
48881;SDS011;57063;51.406;-2.402;2023-03-05T15:34:04;12.50;;;5.28;;
48881;SDS011;57063;51.406;-2.402;2023-03-05T15:36:30;10.45;;;4.82;;
48881;SDS011;57063;51.406;-2.402;2023-03-05T15:38:59;10.30;;;4.95;;
48881;SDS011;57063;51.406;-2.402;2023-03-05T15:41:25;10.55;;;5.82;;
48881;SDS011;57063;51.406;-2.402;2023-03-05T15:43:50;9.80;;;5.95;;
48881;SDS011;57063;51.406;-2.402;2023-03-05T15:46:16;9.57;;;5.35;;
48881;SDS011;57063;51.406;-2.402;2023-03-05T15:48:44;9.90;;;5.57;;
48881;SDS011;57063;51.406;-2.402;2023-03-05T15:51:14;9.75;;;5.35;;
48881;SDS011;57063;51.406;-2.402;2023-03-05T15:53:44;12.45;;;6.05;;
48881;SDS011;57063;51.406;-2.402;2023-03-05T15:56:14;12.00;;;5.53;;
48881;SDS011;57063;51.406;-2.402;2023-03-05T15:58:40;14.35;;;5.93;;
48881;SDS011;57063;51.406;-2.402;2023-03-05T16:01:08;12.32;;;5.95;;
48881;SDS011;57063;51.406;-2.402;2023-03-05T16:06:36;13.48;;;6.15;;
48881;SDS011;57063;51.406;-2.402;2023-03-05T16:09:02;8.93;;;6.22;;
48881;SDS011;57063;51.406;-2.402;2023-03-05T16:11:32;13.88;;;6.82;;
48881;SDS011;57063;51.406;-2.402;2023-03-05T16:14:03;9.57;;;5.47;;
48881;SDS011;57063;51.406;-2.402;2023-03-05T16:16:33;12.82;;;6.30;;
48881;SDS011;57063;51.406;-2.402;2023-03-05T16:19:00;11.13;;;6.10;;
48881;SDS011;57063;51.406;-2.402;2023-03-05T16:21:30;7.97;;;5.47;;
48881;SDS011;57063;51.406;-2.402;2023-03-05T16:23:56;10.23;;;6.20;;
48881;SDS011;57063;51.406;-2.402;2023-03-05T16:32:38;12.68;;;7.43;;
48881;SDS011;57063;51.406;-2.402;2023-03-05T16:39:01;12.57;;;7.43;;
48881;SDS011;57063;51.406;-2.402;2023-03-05T16:46:52;15.13;;;9.20;;
48881;SDS011;57063;51.406;-2.402;2023-03-05T16:49:20;12.40;;;6.80;;
48881;SDS011;57063;51.406;-2.402;2023-03-05T16:52:09;17.80;;;7.68;;
48881;SDS011;57063;51.406;-2.402;2023-03-05T16:54:36;10.73;;;6.32;;
48881;SDS011;57063;51.406;-2.402;2023-03-05T16:57:08;10.18;;;7.43;;
48881;SDS011;57063;51.406;-2.402;2023-03-05T16:59:42;10.50;;;7.32;;
48881;SDS011;57063;51.406;-2.402;2023-03-05T17:02:10;14.18;;;7.30;;
48881;SDS011;57063;51.406;-2.402;2023-03-05T17:04:39;12.05;;;6.57;;
48881;SDS011;57063;51.406;-2.402;2023-03-05T17:07:05;12.23;;;7.15;;
48881;SDS011;57063;51.406;-2.402;2023-03-05T17:09:31;14.57;;;8.93;;
48881;SDS011;57063;51.406;-2.402;2023-03-05T17:11:57;13.55;;;8.15;;
48881;SDS011;57063;51.406;-2.402;2023-03-05T17:14:26;15.00;;;8.45;;
48881;SDS011;57063;51.406;-2.402;2023-03-05T17:16:52;18.70;;;8.60;;
48881;SDS011;57063;51.406;-2.402;2023-03-05T17:19:18;13.00;;;7.38;;
48881;SDS011;57063;51.406;-2.402;2023-03-05T17:21:44;12.02;;;7.60;;
48881;SDS011;57063;51.406;-2.402;2023-03-05T17:24:14;11.88;;;7.22;;
48881;SDS011;57063;51.406;-2.402;2023-03-05T17:26:40;13.02;;;7.80;;
48881;SDS011;57063;51.406;-2.402;2023-03-05T17:29:06;17.98;;;10.93;;
48881;SDS011;57063;51.406;-2.402;2023-03-05T17:31:37;14.70;;;7.30;;
48881;SDS011;57063;51.406;-2.402;2023-03-05T17:34:06;12.00;;;7.10;;
48881;SDS011;57063;51.406;-2.402;2023-03-05T17:36:37;14.73;;;10.05;;
48881;SDS011;57063;51.406;-2.402;2023-03-05T19:40:13;16.33;;;10.60;;
48881;SDS011;57063;51.406;-2.402;2023-03-05T19:47:52;17.85;;;11.82;;
48881;SDS011;57063;51.406;-2.402;2023-03-05T19:50:27;21.67;;;11.30;;
48881;SDS011;57063;51.406;-2.402;2023-03-05T19:52:55;16.35;;;11.77;;
48881;SDS011;57063;51.406;-2.402;2023-03-05T19:56:00;15.93;;;11.65;;
48881;SDS011;57063;51.406;-2.402;2023-03-05T19:58:35;15.45;;;10.93;;
48881;SDS011;57063;51.406;-2.402;2023-03-05T20:25:30;15.48;;;10.43;;
48881;SDS011;57063;51.406;-2.402;2023-03-05T20:28:04;15.48;;;9.75;;
48881;SDS011;57063;51.406;-2.402;2023-03-05T20:31:10;12.55;;;8.95;;
48881;SDS011;57063;51.406;-2.402;2023-03-05T20:37:15;15.60;;;10.15;;
48881;SDS011;57063;51.406;-2.402;2023-03-05T21:31:47;17.42;;;11.10;;
48881;SDS011;57063;51.406;-2.402;2023-03-05T21:34:13;13.57;;;10.18;;
48881;SDS011;57063;51.406;-2.402;2023-03-05T21:36:43;15.02;;;10.23;;
48881;SDS011;57063;51.406;-2.402;2023-03-05T21:39:14;17.40;;;10.68;;
48881;SDS011;57063;51.406;-2.402;2023-03-05T21:41:45;17.70;;;11.18;;
48881;SDS011;57063;51.406;-2.402;2023-03-05T21:44:26;18.10;;;11.38;;
48881;SDS011;57063;51.406;-2.402;2023-03-05T21:49:27;20.25;;;11.23;;
48881;SDS011;57063;51.406;-2.402;2023-03-05T21:54:27;15.40;;;11.15;;
48881;SDS011;57063;51.406;-2.402;2023-03-05T21:57:03;19.08;;;12.13;;
48881;SDS011;57063;51.406;-2.402;2023-03-05T21:59:38;17.15;;;11.30;;
48881;SDS011;57063;51.406;-2.402;2023-03-05T22:02:14;16.83;;;12.13;;
48881;SDS011;57063;51.406;-2.402;2023-03-05T22:04:49;15.48;;;11.40;;
48881;SDS011;57063;51.406;-2.402;2023-03-05T22:07:21;23.33;;;12.13;;
48881;SDS011;57063;51.406;-2.402;2023-03-05T22:09:54;16.95;;;12.13;;
48881;SDS011;57063;51.406;-2.402;2023-03-05T22:12:21;19.30;;;12.00;;
48881;SDS011;57063;51.406;-2.402;2023-03-05T22:15:04;15.02;;;10.48;;
48881;SDS011;57063;51.406;-2.402;2023-03-05T22:17:32;17.00;;;11.73;;
48881;SDS011;57063;51.406;-2.402;2023-03-05T22:20:00;18.20;;;11.70;;
48881;SDS011;57063;51.406;-2.402;2023-03-05T22:22:32;15.38;;;11.02;;
48881;SDS011;57063;51.406;-2.402;2023-03-05T22:25:01;14.80;;;11.50;;
48881;SDS011;57063;51.406;-2.402;2023-03-05T22:30:00;16.10;;;10.43;;
48881;SDS011;57063;51.406;-2.402;2023-03-05T22:32:44;14.65;;;9.85;;
48881;SDS011;57063;51.406;-2.402;2023-03-05T22:35:18;14.00;;;10.50;;
48881;SDS011;57063;51.406;-2.402;2023-03-05T22:37:48;14.13;;;9.93;;
48881;SDS011;57063;51.406;-2.402;2023-03-05T22:40:15;17.70;;;10.15;;
48881;SDS011;57063;51.406;-2.402;2023-03-05T22:43:31;15.07;;;9.82;;
48881;SDS011;57063;51.406;-2.402;2023-03-05T22:46:34;15.88;;;10.60;;
48881;SDS011;57063;51.406;-2.402;2023-03-05T22:48:54;17.45;;;10.80;;
48881;SDS011;57063;51.406;-2.402;2023-03-05T22:51:33;15.18;;;9.63;;
48881;SDS011;57063;51.406;-2.402;2023-03-05T22:54:23;13.00;;;9.27;;
48881;SDS011;57063;51.406;-2.402;2023-03-05T22:56:54;15.00;;;9.80;;
48881;SDS011;57063;51.406;-2.402;2023-03-05T22:59:20;12.00;;;8.43;;
48881;SDS011;57063;51.406;-2.402;2023-03-05T23:01:53;13.00;;;9.38;;
48881;SDS011;57063;51.406;-2.402;2023-03-05T23:04:23;16.05;;;9.18;;
48881;SDS011;57063;51.406;-2.402;2023-03-05T23:34:43;10.80;;;8.27;;
48881;SDS011;57063;51.406;-2.402;2023-03-05T23:38:18;10.35;;;7.25;;
48881;SDS011;57063;51.406;-2.402;2023-03-05T23:41:29;11.45;;;7.07;;
48881;SDS011;57063;51.406;-2.402;2023-03-05T23:44:21;13.10;;;7.70;;
48881;SDS011;57063;51.406;-2.402;2023-03-05T23:47:17;11.15;;;7.45;;
48881;SDS011;57063;51.406;-2.402;2023-03-05T23:50:34;10.45;;;7.30;;
48881;SDS011;57063;51.406;-2.402;2023-03-05T23:57:45;18.50;;;11.40;;
